Portada
METAR-TAF:

METAR-TAF

Aeropuertos :

Bagdad, Iraq

Aeropuerto Internacional de Bagdad

latitud: 33-15-45N, longitud: 44-14-04E, altitud: 35 m

Observación

El informe se hizo hace 33 minutos, a las 08:00 UTC
Viento 11 kt del norte
Temperatura 35°C
Humedad 16%
Presión 1011 hPa
Visibilidad 10 km o más
sin nubes por debajo de 1500 m y sin presencia de cumulonimbus.

METAR: ORBI 280800Z 35011KT CAVOK 35/05 Q1011 NOSIG

Hora: 11:33 (08:33 UTC)

Pronóstico

El informe se hizo hace 9 horas y 33 minutos, a las 23:00 UTC
Pronóstico válido del 28 a las 00 UTC al 28 a las 24 UTC
Viento 10 kt del noroeste
Visibilidad: 8000 m

TAF: ORBI 272300Z 2800/2824 31010KT 8000 NSC

Observaciones y pronósticos meteorológicos de más de 4000 aeropuertos (mensajes METAR y TAF).

Los puntos amarillos y rojos representan las estaciones disponibles.

Ponga el ratón en el punto deseado para ver el nombre de la estación.

Haga clic para ver las observaciones y los pronósticos meteorológicos.

Para cambiar el mapa : haga clic en los botones verdes con una cruz de color negro para hacer un zoom, en el botón verde con un guión para alejar o en las flechas verdes para mapas adyacentes.


METAR-TAF: